BUDS weather

Public forecast

Using degrees Fahrenheit for public forecast. Weather courtesy of forecast.io.

Closest aviation weather report (METAR) to Buds Field

Closest report is Searcy Municipal Airport, 14.9 nm (27.6 km) WSW. Retrieved 2020/08/10 14:56 UTC (60 minutes ago):

KSRC 101456Z AUTO VRB03KT 10SM CLR 31/25 A3006 RMK AO2 SLP177 T03110250 50002

Closest aviation forecast (TAF) to Buds Field

Closest forecast is Little Rock Air Force Base, 41.4 nm (76.7 km) SW. Retrieved 2020/08/10 15:03 UTC (53 minutes ago):

TAF TAF KLRF 101500Z 1015/1121 20012KT 9999 SCT050 SCT150 QNH2995INS BECMG 1022/1023 20004KT 9999 SKC QNH2995INS BECMG 1113/1114 23006KT 9999 SCT040 QNH2992INS TX36/1021Z TN26/1112Z